Flight Track Log - Related Links

Times and Time Zones

All times are in EDT time to prevent confusion due to time zone crossing. See the SLI2469 flight status page for this flight to view local times or setup timezone preferences in your user account.

Time Position Orientation Groundspeed Altitude Reporting Facility
EDT Latitude Longitude Course Direction KTS MPH feet Rate Location/Type
Sat 03:09:00 PM 20.7552 -89.8583 226° Southwest  Level Estimated
Sat 03:10:00 PM 20.6945 -89.9250 226° Southwest  Level Estimated
Sat 03:11:00 PM 20.6339 -89.9917 226° Southwest  Level Estimated
Sat 03:12:00 PM 20.5732 -90.0584 226° Southwest  Level Estimated
Sat 03:13:00 PM 20.5124 -90.1250 226° Southwest  Level Estimated
Sat 03:14:00 PM 20.4517 -90.1915 226° Southwest  Level Estimated
Sat 03:15:00 PM 20.3909 -90.2580 226° Southwest  Level Estimated
Sat 03:16:00 PM 20.3301 -90.3245 226° Southwest  Level Estimated
Sat 03:17:00 PM 20.2693 -90.3909 226° Southwest  Level Estimated
Sat 03:18:00 PM 20.2084 -90.4572 226° Southwest  Level Estimated
Sat 03:19:00 PM 20.1475 -90.5235 226° Southwest  Level Estimated
Sat 03:20:00 PM 20.0866 -90.5897 226° Southwest  Level Estimated
Sat 03:21:00 PM 20.0257 -90.6559 226° Southwest  Level Estimated
Sat 03:22:00 PM 19.9648 -90.7220 226° Southwest  Level Estimated
Sat 03:23:00 PM 19.9038 -90.7881 226° Southwest  Level Estimated
Sat 03:24:00 PM 19.8428 -90.8541 226° Southwest  Level Estimated
Sat 03:25:00 PM 19.7817 -90.9201 225° Southwest  Level Estimated
Sat 03:26:00 PM 19.7207 -90.9861 225° Southwest  Level Estimated
Sat 03:27:00 PM 19.6596 -91.0519 225° Southwest  Level Estimated
Sat 03:28:00 PM 19.5985 -91.1178 225° Southwest  Level Estimated
Sat 03:29:00 PM 19.5374 -91.1835 225° Southwest  Level Estimated
Sat 03:30:00 PM 19.4762 -91.2493 225° Southwest  Level Estimated
Sat 03:31:00 PM 19.4151 -91.3149 225° Southwest  Level Estimated
Sat 03:32:00 PM 19.3539 -91.3806 225° Southwest  Level Estimated
Sat 03:33:00 PM 19.2927 -91.4462 225° Southwest  Level Estimated
Sat 03:34:00 PM 19.2314 -91.5117 225° Southwest  Level Estimated
Sat 03:35:00 PM 19.1702 -91.5772 225° Southwest  Level Estimated
Sat 03:36:00 PM 19.1089 -91.6426 225° Southwest  Level Estimated
Sat 03:37:00 PM 19.0476 -91.7080 225° Southwest  Level Estimated
Sat 03:38:00 PM 18.9862 -91.7733 225° Southwest  Level Estimated
Sat 03:39:00 PM 18.9249 -91.8386 225° Southwest  Level Estimated
Sat 03:40:00 PM 18.8635 -91.9038 225° Southwest  Level Estimated
Sat 03:41:00 PM 18.8021 -91.9690 225° Southwest  Level Estimated
Sat 03:42:00 PM 18.7407 -92.0342 225° Southwest  Level Estimated
Sat 03:43:00 PM 18.6792 -92.0993 225° Southwest  Level Estimated
Sat 03:44:00 PM 18.6178 -92.1643 225° Southwest  Level Estimated
Sat 03:45:00 PM 18.5563 -92.2293 225° Southwest  Level Estimated
Sat 03:46:00 PM 18.4948 -92.2943 225° Southwest  Level Estimated
Sat 03:47:00 PM 18.4332 -92.3592 225° Southwest  Level Estimated
Sat 03:48:00 PM 18.3717 -92.4241 225° Southwest  Level Estimated
Sat 03:49:00 PM 18.3101 -92.4889 225° Southwest  Level Estimated
Sat 03:50:00 PM 18.2485 -92.5536 225° Southwest  Level Estimated
Sat 03:51:00 PM 18.1869 -92.6184 225° Southwest  Level Estimated
Sat 03:52:00 PM 18.1252 -92.6831 225° Southwest  Level Estimated
Sat 03:53:00 PM 18.0636 -92.7477 225° Southwest  Level Estimated
Sat 03:54:00 PM 18.0019 -92.8123 225° Southwest  Level Estimated
Sat 03:55:00 PM 17.9970 -92.8174 225° Southwest  Level Estimated
Sat 03:56:00 PM 17.9970 -92.8174 270° West  Level Estimated
Sat 03:57:00 PM 17.9970 -92.8174 270° West  Level Estimated

Login

Don't have an account? Register now (free) for customized features, flight alerts, and more!